METAR Data
IDs: Format: Raw Decoded Include TAF

Data at: 0902 UTC 03 Aug 2021

EPSC 030900Z 26009KT 220V290 9999 SCT034 19/10 Q1013